x

South Kodiak - 310nm Ssw Of Kodiak, Ak (46066) Wave Buoy

5:50pm - Sat 19th Apr 2014 All times are UTC.

  • Sig Wave height 6.6ft
  • Swell Direction
  • Peak Period 10s
  • Average Period 6s
  • Wind
    25mph, 29mph gusts
  • Sea Temp 41°f
  • Air Temp 39°f
  • Sea Pressure 993.6mb

More Historic Weather Station data

Upgrade to MSW Pro to gain access to the past 30 days of data for over 8000 Wavebouys and Weather Stations around the globe.

Join Pro

Comparision Forecast

View Surf forecast
   
Sat 04/19 5:50pm 6.5ft 10s 6s 25 29 mph 993.6mb 41f 39f
4:50pm 6.5ft 8s 6s 27 31 mph 993.5mb 41f 40f
3:50pm 6.5ft 9s 6s 20 25 mph 993.5mb 41f 39f
2:50pm 6.5ft 8s 6s 25 29 mph 993.5mb 41f 39f
1:50pm 6.5ft 8s 6s 22 27 mph 993.5mb 41f 40f
12:50pm 6ft 8s 6s 22 27 mph 993.6mb 41f 40f
11:50am 6ft 8s 6s 22 27 mph 993.8mb 41f 40f
10:50am 6ft 8s 6s 22 27 mph 994.2mb 41f 40f
9:50am 5.5ft 7s 5s 22 27 mph 994.4mb 41f 39f
8:50am 5.5ft 9s 6s 22 27 mph 994.4mb 41f 40f
7:50am 5ft 10s 5s 22 27 mph 994.6mb 41f 40f
6:50am 5ft 9s 6s 22 27 mph 994.8mb 41f 40f
5:50am 5ft 10s 6s 22 27 mph 994.6mb 42f 40f
4:50am 5ft 9s 6s 20 25 mph 994.4mb 42f 40f
3:50am 5ft 9s 6s 18 25 mph 994.7mb 42f 40f
2:50am 5ft 10s 6s 20 25 mph 994.6mb 42f 40f
1:50am 5.5ft 10s 6s 20 25 mph 994.5mb 42f 40f
12:50am 5.5ft 10s 6s 20 25 mph 994.5mb 42f 40f
Fri 04/18 11:50pm 5.5ft 9s 6s 20 27 mph 994.3mb 42f 40f
10:50pm 6ft 9s 7s 20 25 mph 994.3mb 41f 40f
9:50pm 5.5ft 10s 7s 22 25 mph 994mb 41f 39f
8:50pm 5.5ft 8s 7s 22 27 mph 993.6mb 41f 39f
7:50pm 5ft 10s 8s 7 11 mph 993.4mb 41f 38f
6:50pm 5ft 10s 8s 7 11 mph 993mb 41f 37f
5:50pm 5ft 11s 8s 13 16 mph 992.8mb 41f 37f
4:50pm 5ft 9s 7s 11 16 mph 992.3mb 41f 39f
3:50pm 5.5ft 8s 7s  -  2 mph 991.8mb 41f 39f
2:50pm 6ft 11s 7s 9 13 mph 991.4mb 41f 39f
1:50pm 6ft 10s 7s  -  4 mph 991.2mb 41f 40f
12:50pm 6.5ft 8s 7s 7 11 mph 991.2mb 41f 40f
11:50am 6.5ft 8s 8s 4 9 mph 991.5mb 41f 40f
10:50am 6.5ft 10s 8s 9 13 mph 991.7mb 41f 40f
9:50am 6.5ft 10s 8s 9 13 mph 992.2mb 41f 40f
8:50am 7ft 11s 8s 9 13 mph 992.6mb 41f 40f
7:50am 6ft 11s 7s 13 16 mph 993.2mb 41f 40f
6:50am 6ft 10s 8s 9 11 mph 993.4mb 41f 39f
5:50am 5.5ft 9s 7s 11 18 mph 993.8mb 42f 38f
4:50am 6ft 10s 7s 2 9 mph 994.1mb 41f 39f
3:50am 6ft 10s 7s 2 4 mph 994.7mb 41f 39f
2:50am 6ft 11s 7s 4 11 mph 995.3mb 42f 40f
1:50am 6ft 11s 7s 13 16 mph 995.9mb 41f 40f
12:50am 6ft 11s 7s 11 16 mph 996.5mb 41f 40f
Thu 04/17 10:50pm 7ft 11s 8s 13 18 mph 997.8mb 41f 40f
9:50pm 8ft 11s 8s 13 18 mph 998.4mb 41f 40f
8:50pm 6.5ft 9s 8s 16 20 mph 998.8mb 41f 40f
7:50pm 6.5ft 11s 8s 13 18 mph 999.1mb 41f 39f
6:50pm 6ft 11s 7s 16 18 mph 999.6mb 41f 39f
5:50pm 6.5ft 11s 7s 18 20 mph 999.9mb 41f 40f
4:50pm 6ft 12s 7s 16 20 mph 1000.3mb 41f 39f
3:50pm 6ft 10s 7s 16 18 mph 1000.6mb 41f 39f
2:50pm 7ft 11s 7s 16 18 mph 1000.9mb 41f 39f
1:50pm 7ft 12s 7s 16 20 mph 1001.4mb 41f 39f
12:50pm 7ft 12s 7s 13 16 mph 1001.8mb 41f 39f
11:50am 8ft 13s 8s 16 20 mph 1002.3mb 41f 39f
10:50am 7.5ft 12s 8s 13 18 mph 1003mb 41f 39f
9:50am 9ft 13s 9s 13 18 mph 1003.2mb 41f 39f
8:50am 9.5ft 11s 9s 13 16 mph 1003.4mb 41f 40f
7:50am 8ft 12s 9s 13 18 mph 1003.6mb 41f 40f
6:50am 9ft 11s 9s 4 9 mph 1003.8mb 41f 39f
5:50am 8ft 12s 9s 11 16 mph 1003.8mb 41f 40f
4:50am 8.5ft 13s 9s 13 18 mph 1003.7mb 41f 40f
3:50am 9ft 13s 9s 11 16 mph 1003.8mb 41f 40f
2:50am 8ft 11s 9s 11 13 mph 1004mb 41f 40f
1:50am 10ft 13s 9s 11 16 mph 1004.2mb 41f 39f
12:50am 9ft 12s 9s 18 20 mph 1004.5mb 42f 39f
Wed 04/16 11:50pm 10ft 12s 9s 7 11 mph 1004.7mb 42f 41f
10:50pm 10ft 10s 9s 9 16 mph 1004.9mb 41f 41f
9:50pm 10ft 14s 10s 9 13 mph 1005.3mb 41f 40f
8:50pm 11ft 14s 10s 7 11 mph 1005.6mb 41f 40f
7:50pm 10ft 14s 9s 9 13 mph 1005.7mb 41f 40f
6:50pm 9ft 13s 9s 9 13 mph 1006mb 41f 40f
5:50pm 8.5ft 11s 9s 13 16 mph 1006.4mb 41f 40f
4:50pm 8ft 15s 9s 13 18 mph 1006.5mb 41f 40f
3:50pm 7ft 11s 8s 13 18 mph 1006.5mb 41f 40f
2:50pm 7ft 11s 8s 16 20 mph 1006.6mb 41f 40f
1:50pm 7ft 10s 8s 18 20 mph 1006.6mb 41f 40f
12:50pm 8ft 10s 8s 16 20 mph 1006.8mb 41f 40f
11:50am 7ft 10s 8s 16 20 mph 1006.9mb 41f 40f
10:50am 6.5ft 11s 8s 16 18 mph 1007.1mb 41f 40f
9:50am 7ft 11s 8s 16 18 mph 1007.3mb 41f 40f
8:50am 6.5ft 11s 8s 16 18 mph 1007.4mb 41f 41f
7:50am 6ft 10s 8s 16 18 mph 1007.5mb 41f 41f
6:50am 6ft 11s 8s 11 16 mph 1007.5mb 41f 41f
5:50am 6ft 11s 8s 11 16 mph 1007.2mb 41f 41f
4:50am 6ft 11s 7s 18 20 mph 1006.9mb 41f 41f
3:50am 6ft 11s 7s 16 18 mph 1007.1mb 41f 41f
2:50am 7ft 11s 8s 18 20 mph 1007mb 41f 41f
1:50am 7ft 11s 8s 13 18 mph 1007.1mb 41f 41f
12:50am 7ft 11s 7s 11 13 mph 1007mb 41f 41f
Tue 04/15 11:50pm 6.5ft 11s 7s 11 16 mph 1006.9mb 41f 41f
10:50pm 7.5ft 10s 8s 11 13 mph 1006.9mb 41f 41f
9:50pm 8ft 11s 8s 7 11 mph 1006.9mb 41f 40f
8:50pm 8ft 11s 8s 11 13 mph 1006.9mb 41f 40f
7:50pm 8.5ft 10s 8s 13 16 mph 1006.6mb 41f 40f
6:50pm 8ft 11s 7s 16 18 mph 1006.4mb 41f 40f